createdAt,value
2022-10-05T00:02:26.120Z,99623.16
2022-10-05T00:05:31.912Z,99617.28
2022-10-05T00:08:35.167Z,99627.13
2022-10-05T00:11:37.060Z,99613.13
2022-10-05T00:14:39.630Z,99611.78
2022-10-05T00:17:42.630Z,99614.59
2022-10-05T00:20:45.220Z,99620.59
2022-10-05T00:23:47.177Z,99615.41
2022-10-05T00:26:55.419Z,99605.63
2022-10-05T00:30:02.743Z,99613.97
2022-10-05T00:33:04.495Z,99622.09
2022-10-05T00:36:07.229Z,99610.00
2022-10-05T00:39:09.476Z,99597.13
2022-10-05T00:42:28.056Z,99619.25
2022-10-05T00:45:54.764Z,99621.38
2022-10-05T00:49:13.609Z,99622.19
2022-10-05T00:52:27.321Z,99621.09
2022-10-05T00:56:00.336Z,99625.13
2022-10-05T00:59:17.469Z,99630.84
2022-10-05T01:02:36.533Z,99627.66
2022-10-05T01:05:55.768Z,99631.00
2022-10-05T01:09:29.872Z,99629.94
2022-10-05T01:12:34.562Z,99633.72
2022-10-05T01:15:46.851Z,99628.31
2022-10-05T01:19:06.662Z,99619.75
2022-10-05T01:22:57.926Z,99624.63
2022-10-05T01:26:30.519Z,99631.38
2022-10-05T01:29:43.791Z,99609.22
2022-10-05T01:33:04.343Z,99610.47
2022-10-05T01:36:49.095Z,99610.47
2022-10-05T01:39:57.047Z,99607.44
2022-10-05T01:43:12.911Z,99597.78
2022-10-05T01:46:44.491Z,99599.19
2022-10-05T01:50:02.771Z,99601.13
2022-10-05T01:53:23.106Z,99605.56
2022-10-05T01:56:43.196Z,99601.75
2022-10-05T02:00:20.828Z,99591.56
2022-10-05T02:03:27.785Z,99586.31
2022-10-05T02:06:39.028Z,99576.94
2022-10-05T02:09:52.001Z,99589.97
2022-10-05T02:13:10.605Z,99586.19
2022-10-05T02:16:17.698Z,99588.44
2022-10-05T02:19:36.645Z,99592.09
2022-10-05T02:22:46.170Z,99588.94
2022-10-05T02:25:51.172Z,99595.78
2022-10-05T02:28:58.730Z,99581.44
2022-10-05T02:32:05.653Z,99574.63
2022-10-05T02:35:15.601Z,99587.34
2022-10-05T02:38:56.003Z,99602.63
2022-10-05T02:42:12.814Z,99593.38
2022-10-05T02:45:29.468Z,99608.31
2022-10-05T02:49:06.621Z,99603.38
2022-10-05T02:52:17.790Z,99597.81
2022-10-05T02:55:41.432Z,99601.94
2022-10-05T02:58:50.249Z,99609.22
2022-10-05T03:02:04.834Z,99611.47
2022-10-05T03:05:33.976Z,99615.56
2022-10-05T03:08:46.904Z,99602.50
2022-10-05T03:12:33.678Z,99597.25
2022-10-05T03:16:13.213Z,99601.09
2022-10-05T03:19:27.271Z,99598.41
2022-10-05T03:22:38.262Z,99583.31
2022-10-05T03:25:52.936Z,99580.31
2022-10-05T03:29:08.212Z,99579.19
2022-10-05T03:32:28.999Z,99566.47
2022-10-05T03:36:14.698Z,99560.59
2022-10-05T03:39:29.876Z,99554.22
2022-10-05T03:42:51.897Z,99556.16
2022-10-05T03:46:02.220Z,99545.97
2022-10-05T03:49:22.642Z,99551.22
2022-10-05T03:52:41.703Z,99550.88
2022-10-05T03:56:05.422Z,99544.53
2022-10-05T03:59:32.606Z,99551.19
2022-10-05T04:02:46.100Z,99530.84
2022-10-05T04:05:56.809Z,99535.00
2022-10-05T04:09:03.668Z,99530.19
2022-10-05T04:12:33.793Z,99529.00
2022-10-05T04:15:42.528Z,99536.16
2022-10-05T04:18:59.341Z,99524.44
2022-10-05T04:22:08.344Z,99532.03
2022-10-05T04:25:17.014Z,99534.34
2022-10-05T04:28:32.572Z,99522.53
2022-10-05T04:31:54.740Z,99522.88
2022-10-05T04:35:18.459Z,99526.94
2022-10-05T04:38:47.782Z,99527.75
2022-10-05T04:42:09.472Z,99532.69
2022-10-05T04:45:24.629Z,99538.03
2022-10-05T04:49:04.411Z,99534.41
2022-10-05T04:52:37.258Z,99541.28
2022-10-05T04:55:57.968Z,99530.88
2022-10-05T04:59:20.915Z,99543.47
2022-10-05T05:02:41.466Z,99547.41
2022-10-05T05:06:16.351Z,99552.34
2022-10-05T05:09:53.716Z,99562.72
2022-10-05T05:13:38.003Z,99565.16
2022-10-05T05:16:43.289Z,99573.94
2022-10-05T05:20:17.127Z,99571.41
2022-10-05T05:23:37.835Z,99564.19
2022-10-05T05:27:16.085Z,99578.72
2022-10-05T05:30:33.176Z,99576.09
2022-10-05T05:33:53.847Z,99588.72
2022-10-05T05:37:11.757Z,99588.78
2022-10-05T05:40:21.509Z,99588.72
2022-10-05T05:44:10.367Z,99586.28
2022-10-05T05:47:20.252Z,99589.66
2022-10-05T05:50:30.430Z,99587.16
2022-10-05T05:53:46.161Z,99593.00
2022-10-05T05:57:00.464Z,99570.03
2022-10-05T06:00:03.747Z,99597.59
2022-10-05T06:03:28.163Z,99571.44
2022-10-05T06:06:38.429Z,99598.34
2022-10-05T06:09:46.053Z,99602.94
2022-10-05T06:13:14.682Z,99601.94
2022-10-05T06:16:36.174Z,99614.69
2022-10-05T06:19:40.186Z,99603.72
2022-10-05T06:22:46.015Z,99606.91
2022-10-05T06:26:10.918Z,99622.56
2022-10-05T06:29:21.296Z,99628.00
2022-10-05T06:32:56.908Z,99629.91
2022-10-05T06:36:32.552Z,99621.13
2022-10-05T06:39:38.527Z,99627.13
2022-10-05T06:43:06.199Z,99638.78
2022-10-05T06:46:32.622Z,99630.22
2022-10-05T06:50:03.961Z,99629.56
2022-10-05T06:53:51.627Z,99637.75
2022-10-05T06:57:38.126Z,99634.69
2022-10-05T07:00:50.599Z,99630.91
2022-10-05T07:04:36.924Z,99631.72
2022-10-05T07:07:55.341Z,99631.34
2022-10-05T07:11:37.729Z,99640.25
2022-10-05T07:15:16.785Z,99642.72
2022-10-05T07:18:28.177Z,99629.69
2022-10-05T07:21:35.795Z,99631.91
2022-10-05T07:25:10.710Z,99629.16
2022-10-05T07:28:24.743Z,99631.06
2022-10-05T07:31:35.028Z,99636.94
2022-10-05T07:35:03.008Z,99638.28
2022-10-05T07:38:18.785Z,99638.84
2022-10-05T07:41:36.159Z,99647.38
2022-10-05T07:44:46.575Z,99641.81
2022-10-05T07:47:55.087Z,99642.59
2022-10-05T07:51:07.083Z,99646.53
2022-10-05T07:54:08.875Z,99642.16
2022-10-05T07:57:23.682Z,99635.81
2022-10-05T08:00:42.590Z,99640.03
2022-10-05T08:04:15.486Z,99656.56
2022-10-05T08:07:18.251Z,99642.41
2022-10-05T08:10:31.357Z,99647.78
2022-10-05T08:13:47.273Z,99641.88
2022-10-05T08:16:55.360Z,99646.72
2022-10-05T08:20:14.113Z,99635.97
2022-10-05T08:23:38.731Z,99640.00
2022-10-05T08:27:05.337Z,99636.84
2022-10-05T08:30:12.571Z,99641.31
2022-10-05T08:33:17.818Z,99630.88
2022-10-05T08:36:29.158Z,99631.94
2022-10-05T08:39:37.405Z,99638.09
2022-10-05T08:43:00.816Z,99631.59
2022-10-05T08:46:24.094Z,99633.88
2022-10-05T08:49:35.430Z,99637.59
2022-10-05T08:52:55.553Z,99640.78
2022-10-05T08:55:57.107Z,99639.88
2022-10-05T08:59:30.936Z,99627.13
2022-10-05T09:03:06.782Z,99633.41
2022-10-05T09:06:33.630Z,99623.78
2022-10-05T09:10:04.834Z,99634.34
2022-10-05T09:13:36.097Z,99629.84
2022-10-05T09:16:53.514Z,99623.16
2022-10-05T09:20:17.147Z,99624.09
2022-10-05T09:23:44.768Z,99617.41
2022-10-05T09:27:12.933Z,99607.75
2022-10-05T09:30:42.158Z,99613.13
2022-10-05T09:34:18.859Z,99603.44
2022-10-05T09:37:44.438Z,99610.41
2022-10-05T09:41:22.972Z,99602.28
2022-10-05T09:45:04.410Z,99592.09
2022-10-05T09:48:25.956Z,99609.66
2022-10-05T09:51:48.982Z,99597.09
2022-10-05T09:55:28.751Z,99594.66
2022-10-05T09:58:45.988Z,99591.22
2022-10-05T10:02:27.490Z,99591.75
2022-10-05T10:05:41.533Z,99594.34
2022-10-05T10:09:27.269Z,99590.47
2022-10-05T10:12:41.264Z,99592.09
2022-10-05T10:15:53.602Z,99580.09
2022-10-05T10:19:16.916Z,99582.75
2022-10-05T10:22:56.420Z,99591.41
2022-10-05T10:26:22.126Z,99575.38
2022-10-05T10:29:48.305Z,99586.53
2022-10-05T10:32:52.889Z,99582.31
2022-10-05T10:36:26.684Z,99578.19
2022-10-05T10:39:50.496Z,99576.28
2022-10-05T10:43:11.187Z,99575.03
2022-10-05T10:46:31.421Z,99575.50
2022-10-05T10:49:39.216Z,99579.78
2022-10-05T10:52:53.829Z,99572.81
2022-10-05T10:56:20.357Z,99569.41
2022-10-05T10:59:43.882Z,99573.41
2022-10-05T11:03:03.451Z,99566.72
2022-10-05T11:06:08.338Z,99571.84
2022-10-05T11:09:31.893Z,99554.19
2022-10-05T11:12:39.963Z,99571.97
2022-10-05T11:15:55.493Z,99560.16
2022-10-05T11:19:40.586Z,99555.47
2022-10-05T11:23:17.273Z,99552.28
2022-10-05T11:26:47.255Z,99558.63
2022-10-05T11:30:16.199Z,99553.06
2022-10-05T11:33:18.010Z,99549.50
2022-10-05T11:36:35.174Z,99544.44
2022-10-05T11:39:46.220Z,99557.00
2022-10-05T11:42:49.249Z,99553.06
2022-10-05T11:45:59.529Z,99540.47
2022-10-05T11:49:20.179Z,99537.66
2022-10-05T11:52:40.458Z,99549.84
2022-10-05T11:56:06.665Z,99543.59
2022-10-05T11:59:26.943Z,99541.25
2022-10-05T12:02:43.874Z,99534.13
2022-10-05T12:06:10.403Z,99529.00
2022-10-05T12:09:34.808Z,99536.06
2022-10-05T12:12:51.886Z,99535.63
2022-10-05T12:15:53.549Z,99530.19
2022-10-05T12:19:19.197Z,99518.63
2022-10-05T12:22:39.653Z,99516.69
2022-10-05T12:26:04.248Z,99515.56
2022-10-05T12:29:36.300Z,99519.44
2022-10-05T12:33:02.593Z,99512.59
2022-10-05T12:36:17.920Z,99503.22
2022-10-05T12:39:50.647Z,99507.75
2022-10-05T12:43:12.939Z,99502.31
2022-10-05T12:46:23.800Z,99491.72
2022-10-05T12:49:36.629Z,99481.00
2022-10-05T12:52:57.373Z,99471.63
2022-10-05T12:56:08.172Z,99484.75
2022-10-05T12:59:28.517Z,99483.47
2022-10-05T13:02:37.078Z,99476.75
2022-10-05T13:05:59.069Z,99475.06
2022-10-05T13:09:10.244Z,99466.50
2022-10-05T13:12:46.126Z,99468.34
2022-10-05T13:15:47.642Z,99469.09
2022-10-05T13:19:36.413Z,99467.72
2022-10-05T13:22:46.626Z,99468.53
2022-10-05T13:26:18.977Z,99473.09
2022-10-05T13:29:52.234Z,99465.88
2022-10-05T13:33:18.027Z,99470.84
2022-10-05T13:36:25.559Z,99466.38
2022-10-05T13:39:46.701Z,99465.66
2022-10-05T13:43:00.276Z,99465.97
2022-10-05T13:46:09.860Z,99445.91
2022-10-05T13:49:29.456Z,99465.22
2022-10-05T13:52:46.600Z,99454.09
2022-10-05T13:56:00.272Z,99456.81
2022-10-05T13:59:24.172Z,99450.00
2022-10-05T14:02:31.869Z,99452.63
2022-10-05T14:05:33.527Z,99448.22
2022-10-05T14:08:52.499Z,99449.72
2022-10-05T14:12:03.370Z,99438.13
2022-10-05T14:15:22.210Z,99435.53
2022-10-05T14:18:27.311Z,99433.34
2022-10-05T14:21:30.740Z,99431.25
2022-10-05T14:24:44.529Z,99440.41
2022-10-05T14:28:12.281Z,99432.91
2022-10-05T14:31:26.496Z,99448.72
2022-10-05T14:34:34.851Z,99432.50
2022-10-05T14:37:48.059Z,99434.34
2022-10-05T14:41:08.085Z,99437.69
2022-10-05T14:44:09.642Z,99433.50
2022-10-05T14:47:22.649Z,99430.19
2022-10-05T14:50:26.406Z,99435.16
2022-10-05T14:54:14.882Z,99430.41
2022-10-05T14:57:25.868Z,99440.69
2022-10-05T15:00:32.781Z,99438.81
2022-10-05T15:03:37.055Z,99432.34
2022-10-05T15:06:44.913Z,99439.47
2022-10-05T15:10:27.091Z,99429.72
2022-10-05T15:13:34.221Z,99431.50
2022-10-05T15:16:39.106Z,99428.25
2022-10-05T15:19:59.272Z,99436.97
2022-10-05T15:23:15.349Z,99432.56
2022-10-05T15:26:17.604Z,99426.81
2022-10-05T15:29:42.478Z,99431.75
2022-10-05T15:33:25.258Z,99434.59
2022-10-05T15:36:47.931Z,99439.03
2022-10-05T15:39:55.637Z,99444.28
2022-10-05T15:43:03.718Z,99436.41
2022-10-05T15:46:15.761Z,99429.72
2022-10-05T15:49:47.627Z,99441.50
2022-10-05T15:53:08.078Z,99446.34
2022-10-05T15:56:22.129Z,99447.94
2022-10-05T15:59:46.642Z,99455.91
2022-10-05T16:02:52.142Z,99448.50
2022-10-05T16:06:15.268Z,99459.16
2022-10-05T16:09:32.134Z,99446.63
2022-10-05T16:12:52.165Z,99457.34
2022-10-05T16:16:22.589Z,99467.97
2022-10-05T16:19:40.342Z,99463.69
2022-10-05T16:22:50.855Z,99474.31
2022-10-05T16:26:07.877Z,99469.63
2022-10-05T16:29:32.946Z,99468.03
2022-10-05T16:32:46.390Z,99462.97
2022-10-05T16:36:11.339Z,99463.38
2022-10-05T16:39:27.532Z,99461.03
2022-10-05T16:42:35.701Z,99469.69
2022-10-05T16:45:53.059Z,99469.31
2022-10-05T16:49:32.745Z,99471.25
